Time;durP1;ratioP1;P1;durP2;ratioP2;P2;SDS_P1;SDS_P2;PMS_P1;PMS_P2;Temp;Humidity;BMP_temperature;BMP_pressure;BME280_temperature;BME280_humidity;BME280_pressure;Samples;Min_cycle;Max_cycle;Signal;HPM_P1;HPM_P2
2022/08/22 03:00:40;;;;;;;3.80;3.10;;;26.20;44.10;;;;;;5813291;23;46005;-65
2022/08/22 03:03:27;;;;;;;3.20;2.90;;;26.20;44.10;;;;;;4888368;28;45061;-64
2022/08/22 03:05:56;;;;;;;5.38;2.95;;;26.10;44.10;;;;;;4892702;28;44891;-65
2022/08/22 03:08:28;;;;;;;3.50;3.13;;;26.20;44.30;;;;;;4927353;28;44935;-63
2022/08/22 03:11:20;;;;;;;3.30;3.00;;;26.10;44.10;;;;;;4897269;28;45934;-65
2022/08/22 03:14:17;;;;;;;3.40;2.92;;;26.10;44.10;;;;;;4908778;28;45116;-65
2022/08/22 03:17:01;;;;;;;3.30;2.92;;;26.10;44.10;;;;;;4908431;28;45062;-65
2022/08/22 03:19:31;;;;;;;3.50;3.20;;;26.10;44.10;;;;;;4916602;28;45627;-64
2022/08/22 03:21:57;;;;;;;3.50;2.83;;;26.10;44.00;;;;;;4914042;28;45426;-65
2022/08/22 03:24:24;;;;;;;3.50;3.20;;;26.10;44.00;;;;;;4890456;28;44863;-65
2022/08/22 03:26:55;;;;;;;5.78;3.20;;;26.10;44.00;;;;;;4909168;28;45107;-64
2022/08/22 03:29:37;;;;;;;3.05;2.75;;;26.10;44.00;;;;;;4912621;28;45616;-65
2022/08/22 03:32:07;;;;;;;3.50;2.80;;;26.10;44.00;;;;;;4911599;28;46041;-65
2022/08/22 03:34:33;;;;;;;3.05;2.70;;;26.00;43.90;;;;;;4913340;28;44936;-64
2022/08/22 03:37:10;;;;;;;3.00;2.50;;;26.00;43.90;;;;;;4909357;28;44911;-66
2022/08/22 03:40:07;;;;;;;3.50;2.80;;;26.00;44.60;;;;;;4923253;28;45866;-64
2022/08/22 03:42:47;;;;;;;4.63;2.90;;;26.00;44.00;;;;;;4926675;28;45272;-64
2022/08/22 03:45:20;;;;;;;4.18;3.03;;;26.00;44.60;;;;;;4908296;28;44905;-64
2022/08/22 03:48:17;;;;;;;5.05;3.13;;;26.00;44.00;;;;;;4899896;28;45154;-64
2022/08/22 03:51:08;;;;;;;3.28;2.97;;;26.00;43.90;;;;;;4923464;28;46023;-66
2022/08/22 03:54:02;;;;;;;3.83;3.05;;;26.00;43.90;;;;;;4896032;28;45927;-64
2022/08/22 03:57:05;;;;;;;4.00;3.10;;;26.00;43.90;;;;;;4891271;28;45132;-65
2022/08/22 04:00:05;;;;;;;3.72;3.28;;;25.90;43.90;;;;;;4923262;28;45407;-64
2022/08/22 04:02:40;;;;;;;3.55;3.10;;;26.00;44.00;;;;;;4891878;28;44973;-65
2022/08/22 04:05:30;;;;;;;4.72;3.30;;;25.90;43.90;;;;;;4909598;28;45065;-64
2022/08/22 04:08:14;;;;;;;4.67;3.27;;;25.90;43.90;;;;;;4911251;28;45125;-64
2022/08/22 04:10:50;;;;;;;3.85;3.08;;;25.90;43.90;;;;;;4891826;28;45005;-64
2022/08/22 04:13:37;;;;;;;3.42;2.80;;;25.90;43.90;;;;;;4909869;28;46321;-65
2022/08/22 04:16:11;;;;;;;4.57;2.90;;;25.90;43.80;;;;;;4892070;28;45797;-64
2022/08/22 04:18:56;;;;;;;4.38;3.05;;;25.90;44.50;;;;;;4916486;28;44735;-65
2022/08/22 04:21:28;;;;;;;4.10;3.05;;;25.90;43.90;;;;;;4909323;28;45171;-64
2022/08/22 04:24:09;;;;;;;3.10;2.60;;;25.90;43.80;;;;;;4891783;28;44832;-65
2022/08/22 04:26:46;;;;;;;3.70;3.03;;;25.80;43.80;;;;;;4897614;28;46207;-64
2022/08/22 04:29:22;;;;;;;3.47;2.90;;;25.80;43.80;;;;;;4892432;29;45714;-64
2022/08/22 04:31:55;;;;;;;3.53;3.17;;;25.70;43.70;;;;;;4873069;28;45271;-65
2022/08/22 04:34:39;;;;;;;5.22;3.05;;;25.80;43.80;;;;;;4892281;28;45574;-64
2022/08/22 04:37:09;;;;;;;4.22;3.17;;;25.80;43.80;;;;;;4891333;28;45425;-65
2022/08/22 04:39:58;;;;;;;7.07;3.20;;;25.80;43.70;;;;;;4877189;28;45453;-64
2022/08/22 04:42:53;;;;;;;3.50;3.20;;;25.80;43.70;;;;;;4873144;28;45047;-64
2022/08/22 04:45:23;;;;;;;7.38;3.60;;;25.80;43.80;;;;;;4857239;28;45129;-65
2022/08/22 04:47:53;;;;;;;4.70;3.47;;;25.80;43.80;;;;;;4871846;28;45446;-65
2022/08/22 04:50:25;;;;;;;4.90;3.30;;;25.80;43.80;;;;;;4888006;28;44989;-65
2022/08/22 04:52:56;;;;;;;5.85;3.30;;;25.70;43.80;;;;;;4879649;28;45323;-67
2022/08/22 04:55:37;;;;;;;4.43;3.10;;;25.70;43.80;;;;;;4879466;28;45425;-65
2022/08/22 04:58:25;;;;;;;4.15;3.30;;;25.70;43.80;;;;;;4886943;28;46202;-64
2022/08/22 05:01:13;;;;;;;3.55;3.15;;;25.70;43.80;;;;;;4882666;28;45501;-65
2022/08/22 05:03:54;;;;;;;3.30;3.00;;;25.70;43.80;;;;;;4904466;28;45194;-65
2022/08/22 05:06:20;;;;;;;5.40;3.45;;;25.70;43.90;;;;;;4901469;28;45067;-65
2022/08/22 05:08:46;;;;;;;4.33;3.43;;;25.70;43.90;;;;;;4916843;28;46188;-65
2022/08/22 05:11:12;;;;;;;5.37;3.30;;;25.70;44.00;;;;;;4900699;28;45129;-65
2022/08/22 05:13:42;;;;;;;5.47;3.33;;;25.70;44.10;;;;;;4885920;28;45303;-65
2022/08/22 05:16:17;;;;;;;4.10;3.30;;;25.70;44.10;;;;;;4904224;28;45122;-65
2022/08/22 05:19:04;;;;;;;4.13;3.22;;;25.70;44.10;;;;;;4899885;28;45147;-65
2022/08/22 05:21:34;;;;;;;3.77;3.17;;;25.70;44.10;;;;;;4902008;28;45122;-64
2022/08/22 05:24:07;;;;;;;4.40;3.17;;;25.70;44.20;;;;;;4882653;28;45423;-65
2022/08/22 05:26:36;;;;;;;3.88;3.47;;;25.70;44.20;;;;;;4885402;28;45918;-65
2022/08/22 05:29:02;;;;;;;3.58;3.28;;;25.90;43.90;;;;;;4884264;28;47743;-64
2022/08/22 05:31:33;;;;;;;5.40;3.38;;;26.30;43.30;;;;;;4901976;28;45003;-64
2022/08/22 05:34:03;;;;;;;5.33;3.90;;;26.30;43.40;;;;;;4910099;28;45202;-65
2022/08/22 05:36:32;;;;;;;3.70;3.30;;;26.10;43.60;;;;;;4906376;28;45087;-64
2022/08/22 05:39:01;;;;;;;4.77;3.40;;;26.00;43.80;;;;;;4915633;28;45223;-65
2022/08/22 05:41:28;;;;;;;4.82;3.30;;;26.00;44.00;;;;;;4905508;28;45263;-64
2022/08/22 05:43:54;;;;;;;5.67;3.50;;;25.90;44.20;;;;;;4900748;28;45232;-65
2022/08/22 05:46:42;;;;;;;5.00;3.60;;;25.90;44.20;;;;;;4916752;28;45998;-65
2022/08/22 05:49:33;;;;;;;6.27;3.47;;;25.90;44.30;;;;;;4916134;28;45633;-64
2022/08/22 05:52:20;;;;;;;4.03;3.25;;;25.90;44.50;;;;;;4921021;28;45014;-64
2022/08/22 05:54:52;;;;;;;3.85;3.10;;;25.90;44.70;;;;;;4911645;28;45322;-66
2022/08/22 05:57:27;;;;;;;4.55;3.42;;;25.90;44.50;;;;;;4905293;28;45104;-65
2022/08/22 05:59:59;;;;;;;4.72;3.75;;;25.90;44.50;;;;;;4906409;28;46551;-64
2022/08/22 06:02:57;;;;;;;4.90;3.45;;;26.00;44.70;;;;;;4892730;28;44941;-66
2022/08/22 06:05:26;;;;;;;5.88;3.70;;;26.00;44.60;;;;;;4909429;28;45005;-65
2022/08/22 06:07:55;;;;;;;5.10;3.30;;;26.10;44.60;;;;;;4895278;28;44921;-64
2022/08/22 06:10:26;;;;;;;4.90;3.50;;;26.10;44.60;;;;;;4880089;28;45885;-65
2022/08/22 06:13:10;;;;;;;5.57;3.40;;;26.10;44.60;;;;;;4894905;28;45524;-64
2022/08/22 06:15:45;;;;;;;4.43;3.42;;;26.20;44.60;;;;;;4897684;28;45579;-64
2022/08/22 06:18:13;;;;;;;6.22;3.22;;;26.30;44.70;;;;;;4929844;28;45350;-65
2022/08/22 06:20:45;;;;;;;5.68;3.30;;;26.30;44.60;;;;;;4896189;28;45166;-65
2022/08/22 06:23:14;;;;;;;5.88;3.42;;;26.30;44.60;;;;;;4913836;28;45327;-65
2022/08/22 06:25:40;;;;;;;4.05;3.13;;;26.40;44.60;;;;;;4882205;28;44971;-65
2022/08/22 06:28:11;;;;;;;4.25;3.20;;;26.40;44.50;;;;;;4898911;28;45235;-65
2022/08/22 06:30:37;;;;;;;4.87;3.53;;;26.50;44.40;;;;;;4895215;28;46120;-66
2022/08/22 06:33:07;;;;;;;5.25;3.40;;;26.50;44.50;;;;;;4913479;28;45454;-66
2022/08/22 06:38:27;;;;;;;4.80;3.00;;;26.50;44.50;;;;;;4899019;28;44906;-64
2022/08/22 06:40:53;;;;;;;5.10;3.10;;;26.50;44.40;;;;;;4913107;28;45350;-64
2022/08/22 06:43:19;;;;;;;5.82;3.60;;;26.60;44.50;;;;;;4865701;28;45263;-65
2022/08/22 06:45:45;;;;;;;5.00;3.30;;;26.50;44.70;;;;;;4901637;28;44757;-65
2022/08/22 06:48:14;;;;;;;4.90;3.58;;;26.50;44.90;;;;;;4913900;28;44729;-65
2022/08/22 06:50:44;;;;;;;5.78;3.67;;;26.50;45.00;;;;;;4912422;28;46206;-64
2022/08/22 06:53:18;;;;;;;4.70;3.00;;;26.50;45.20;;;;;;4896852;28;45167;-64
2022/08/22 06:55:49;;;;;;;4.68;3.33;;;26.50;45.20;;;;;;4897802;28;44716;-65
2022/08/22 06:58:41;;;;;;;5.60;3.00;;;26.40;45.30;;;;;;4898088;28;45615;-64
2022/08/22 07:01:12;;;;;;;8.23;3.50;;;26.40;45.40;;;;;;4911696;28;46184;-65
2022/08/22 07:03:59;;;;;;;4.47;3.63;;;26.40;45.50;;;;;;4898170;28;45033;-66
2022/08/22 07:06:34;;;;;;;5.70;3.55;;;26.40;45.50;;;;;;4887285;28;44967;-65
2022/08/22 07:09:00;;;;;;;5.30;3.60;;;26.40;45.40;;;;;;4896782;28;45006;-65
2022/08/22 07:11:37;;;;;;;6.25;3.72;;;26.50;45.40;;;;;;4894465;28;46447;-64
2022/08/22 07:14:11;;;;;;;6.05;3.17;;;26.50;45.40;;;;;;4914689;28;45256;-64
2022/08/22 07:16:52;;;;;;;3.72;3.00;;;26.40;45.30;;;;;;4910448;28;45436;-66
2022/08/22 07:19:45;;;;;;;4.72;3.15;;;26.50;45.30;;;;;;4912855;28;45207;-64
2022/08/22 07:22:22;;;;;;;7.90;3.33;;;26.50;45.30;;;;;;4905027;28;44978;-65
2022/08/22 07:24:50;;;;;;;4.75;3.45;;;26.50;45.20;;;;;;4929620;28;45091;-64
2022/08/22 07:27:38;;;;;;;6.40;3.35;;;26.60;45.20;;;;;;4913583;28;45301;-65
2022/08/22 07:30:12;;;;;;;7.38;3.40;;;26.60;45.10;;;;;;4916099;28;44910;-64
2022/08/22 07:33:01;;;;;;;5.90;3.67;;;26.60;45.10;;;;;;4891795;28;44907;-65
2022/08/22 07:35:29;;;;;;;5.22;3.50;;;26.60;45.00;;;;;;4909544;28;45072;-65
2022/08/22 07:38:02;;;;;;;4.43;3.10;;;26.60;45.00;;;;;;4918577;28;45012;-64
2022/08/22 07:40:52;;;;;;;5.20;3.00;;;26.70;45.00;;;;;;4912450;28;44930;-65
2022/08/22 07:43:28;;;;;;;3.72;2.63;;;26.70;44.90;;;;;;4911310;28;46109;-65
2022/08/22 07:46:17;;;;;;;4.40;3.00;;;26.70;44.80;;;;;;4927771;28;45118;-64
2022/08/22 07:48:45;;;;;;;5.10;3.00;;;26.70;44.80;;;;;;4911029;28;45168;-64
2022/08/22 07:51:16;;;;;;;6.72;3.05;;;26.70;44.70;;;;;;4909028;28;44912;-65
2022/08/22 07:53:48;;;;;;;3.63;2.88;;;26.80;44.70;;;;;;4894424;28;46189;-64
2022/08/22 07:56:18;;;;;;;3.92;2.75;;;26.80;44.60;;;;;;4897059;28;45372;-65
2022/08/22 07:58:46;;;;;;;5.20;2.47;;;26.80;44.50;;;;;;4913806;28;44937;-65
2022/08/22 08:01:16;;;;;;;5.00;2.80;;;26.80;44.50;;;;;;4898513;28;45372;-64
2022/08/22 08:03:42;;;;;;;7.00;2.70;;;26.90;44.50;;;;;;4891943;28;46219;-64
2022/08/22 08:06:08;;;;;;;4.95;2.55;;;26.90;44.30;;;;;;4876606;29;44689;-65
2022/08/22 08:08:43;;;;;;;4.05;2.47;;;27.00;44.30;;;;;;4880447;28;45352;-65
2022/08/22 08:11:13;;;;;;;5.40;2.75;;;27.00;44.20;;;;;;4854232;28;44950;-65
2022/08/22 08:13:41;;;;;;;5.25;2.60;;;27.00;44.10;;;;;;4868383;28;45588;-65
2022/08/22 08:16:09;;;;;;;4.20;2.50;;;27.10;43.90;;;;;;4908085;28;45246;-66
2022/08/22 08:18:35;;;;;;;4.20;2.53;;;27.10;43.70;;;;;;4889308;28;44992;-66
2022/08/22 08:21:06;;;;;;;3.73;2.20;;;27.10;43.60;;;;;;4893652;29;45262;-65
2022/08/22 08:23:50;;;;;;;5.75;2.47;;;27.10;43.50;;;;;;4891754;28;45071;-66
2022/08/22 08:26:18;;;;;;;5.25;2.60;;;27.20;43.30;;;;;;4853794;29;44653;-65
2022/08/22 08:28:48;;;;;;;3.80;2.17;;;27.20;42.90;;;;;;4893458;29;45440;-66
2022/08/22 08:31:36;;;;;;;3.35;2.00;;;27.20;42.80;;;;;;4891634;28;45026;-66
2022/08/22 08:34:07;;;;;;;7.00;2.42;;;27.30;42.50;;;;;;4909085;28;45263;-65
2022/08/22 08:36:35;;;;;;;4.93;2.10;;;27.30;42.40;;;;;;4876653;28;45152;-65
2022/08/22 08:39:01;;;;;;;3.97;2.43;;;27.30;42.20;;;;;;4909921;28;45019;-64
2022/08/22 08:41:41;;;;;;;3.97;2.13;;;27.30;41.90;;;;;;4909274;28;45325;-65
2022/08/22 08:44:26;;;;;;;3.83;2.03;;;27.40;41.60;;;;;;4907836;28;45133;-65
2022/08/22 08:47:12;;;;;;;3.55;1.90;;;27.40;41.20;;;;;;4881088;29;45180;-65
2022/08/22 08:49:54;;;;;;;4.45;2.10;;;27.40;41.00;;;;;;4908269;28;44934;-65
2022/08/22 08:52:25;;;;;;;4.07;1.90;;;27.40;40.80;;;;;;4888570;29;44867;-64
2022/08/22 08:55:19;;;;;;;4.80;1.80;;;27.50;40.80;;;;;;4909908;28;45152;-65
2022/08/22 08:58:30;;;;;;;3.35;1.85;;;27.50;40.60;;;;;;4891022;28;45406;-64
2022/08/22 09:01:26;;;;;;;4.40;1.83;;;27.60;40.40;;;;;;4901984;28;45422;-64
2022/08/22 09:04:23;;;;;;;3.03;1.67;;;27.60;40.10;;;;;;4894367;28;44842;-64
2022/08/22 09:07:20;;;;;;;3.13;1.70;;;27.60;40.00;;;;;;4889303;28;46039;-64
2022/08/22 09:10:47;;;;;;;6.97;2.00;;;27.60;39.90;;;;;;4891930;28;45107;-64
2022/08/22 09:13:34;;;;;;;5.30;2.00;;;27.70;39.80;;;;;;4850468;29;45393;-65
2022/08/22 09:16:24;;;;;;;3.97;1.88;;;27.70;39.90;;;;;;4910823;28;45089;-65
2022/08/22 09:19:07;;;;;;;4.03;2.00;;;27.70;39.90;;;;;;4909240;28;45101;-66
2022/08/22 09:21:39;;;;;;;4.88;1.90;;;27.70;39.80;;;;;;4894533;28;45065;-65
2022/08/22 09:24:23;;;;;;;4.55;1.90;;;27.70;39.70;;;;;;4883959;28;45260;-64
2022/08/22 09:26:50;;;;;;;3.20;1.70;;;27.80;39.60;;;;;;4901149;28;44868;-65
2022/08/22 09:29:40;;;;;;;3.40;1.75;;;27.80;39.50;;;;;;4867582;28;45387;-65
2022/08/22 09:32:15;;;;;;;3.83;1.75;;;27.80;39.60;;;;;;4901664;28;45021;-65
2022/08/22 09:34:58;;;;;;;7.37;1.90;;;27.90;39.50;;;;;;4912356;28;45043;-65
2022/08/22 09:38:05;;;;;;;2.08;1.30;;;27.90;39.50;;;;;;4869974;29;45204;-65
2022/08/22 09:40:41;;;;;;;3.27;1.43;;;27.90;39.20;;;;;;4853788;28;46510;-64
2022/08/22 09:43:16;;;;;;;4.00;1.63;;;27.90;38.80;;;;;;4892028;28;44933;-65
2022/08/22 09:45:47;;;;;;;3.90;1.58;;;27.90;38.60;;;;;;4918727;28;45024;-64
2022/08/22 09:48:36;;;;;;;3.35;1.50;;;27.90;38.30;;;;;;4899354;28;45172;-64
2022/08/22 09:51:16;;;;;;;4.93;1.30;;;27.90;38.50;;;;;;4907688;28;46542;-64
2022/08/22 09:54:03;;;;;;;4.28;1.60;;;27.90;38.20;;;;;;4892654;28;45059;-64
2022/08/22 09:56:52;;;;;;;4.55;1.50;;;28.00;37.70;;;;;;4888723;28;45306;-64
2022/08/22 09:59:41;;;;;;;2.77;1.40;;;28.00;37.10;;;;;;4890847;28;45056;-64
2022/08/22 10:02:15;;;;;;;3.40;1.50;;;28.00;37.00;;;;;;4888897;28;45270;-65
2022/08/22 10:04:44;;;;;;;4.57;1.38;;;28.10;36.90;;;;;;4891016;28;45129;-64
2022/08/22 10:07:19;;;;;;;4.13;1.40;;;28.10;36.80;;;;;;4894008;28;44895;-64
2022/08/22 10:10:05;;;;;;;4.15;1.35;;;28.10;36.90;;;;;;4904516;28;45160;-65
2022/08/22 10:13:09;;;;;;;3.22;1.42;;;28.10;36.90;;;;;;4878525;28;45986;-65
2022/08/22 10:15:46;;;;;;;2.55;1.40;;;28.10;36.80;;;;;;4855613;28;45086;-65
2022/08/22 10:18:40;;;;;;;3.85;1.30;;;28.20;36.60;;;;;;4898731;28;45019;-65
2022/08/22 10:21:23;;;;;;;3.50;1.30;;;28.20;36.50;;;;;;4876734;28;45282;-65
2022/08/22 10:23:53;;;;;;;3.83;1.20;;;28.20;36.20;;;;;;4888624;28;46292;-65
2022/08/22 10:26:41;;;;;;;4.03;1.50;;;28.20;36.20;;;;;;4892660;28;45076;-64
2022/08/22 10:29:24;;;;;;;2.88;1.15;;;28.30;36.40;;;;;;4889340;28;45288;-64
2022/08/22 10:31:53;;;;;;;5.25;1.52;;;28.30;36.50;;;;;;4908260;28;45795;-64
2022/08/22 10:34:26;;;;;;;3.07;1.40;;;28.30;36.50;;;;;;4883395;28;45430;-63
2022/08/22 10:37:03;;;;;;;2.80;1.23;;;28.30;36.70;;;;;;4859357;29;44910;-64
2022/08/22 10:39:57;;;;;;;3.67;1.52;;;28.30;36.60;;;;;;4889816;28;45042;-64
2022/08/22 10:42:36;;;;;;;3.77;1.53;;;28.30;36.60;;;;;;4872062;28;45036;-64
2022/08/22 10:45:25;;;;;;;5.55;1.80;;;28.30;36.40;;;;;;4875533;29;46451;-65
2022/08/22 10:47:53;;;;;;;4.23;1.70;;;28.30;36.40;;;;;;4909609;28;44993;-64
2022/08/22 10:50:30;;;;;;;3.47;1.43;;;28.30;36.40;;;;;;4908592;28;44963;-64
2022/08/22 10:55:49;;;;;;;4.25;1.58;;;28.40;36.20;;;;;;4909688;28;45814;-65
2022/08/22 10:58:25;;;;;;;3.67;1.40;;;28.40;36.00;;;;;;4878723;28;44954;-65
2022/08/22 11:00:58;;;;;;;3.35;1.60;;;28.40;35.90;;;;;;4911444;28;44730;-65
2022/08/22 11:03:38;;;;;;;3.03;1.50;;;28.40;35.90;;;;;;4894005;28;44779;-64
2022/08/22 11:06:41;;;;;;;3.35;1.30;;;28.40;35.60;;;;;;4910965;28;46195;-66
2022/08/22 11:09:15;;;;;;;3.42;1.40;;;28.50;35.40;;;;;;4923658;28;44959;-64
2022/08/22 11:11:52;;;;;;;5.10;1.33;;;28.50;35.30;;;;;;4922751;28;45579;-65
2022/08/22 11:14:37;;;;;;;2.40;1.20;;;28.50;35.30;;;;;;4909650;28;45177;-65
2022/08/22 11:17:25;;;;;;;3.22;1.50;;;28.50;35.40;;;;;;4896664;28;46046;-64
2022/08/22 11:20:19;;;;;;;3.35;1.30;;;28.50;35.30;;;;;;4912230;28;45295;-64
2022/08/22 11:22:54;;;;;;;2.80;1.42;;;28.50;35.30;;;;;;4929257;28;45024;-65
2022/08/22 11:25:20;;;;;;;5.53;1.30;;;28.50;35.20;;;;;;4928353;28;44977;-66
2022/08/22 11:28:07;;;;;;;4.17;1.30;;;28.50;35.20;;;;;;4929469;28;45125;-65
2022/08/22 11:30:51;;;;;;;3.38;1.30;;;28.60;35.20;;;;;;4922619;28;45109;-66
2022/08/22 11:33:27;;;;;;;3.13;1.33;;;28.60;35.20;;;;;;4926904;28;45280;-64
2022/08/22 11:36:02;;;;;;;2.58;1.23;;;28.60;35.10;;;;;;4908158;28;45285;-64
2022/08/22 11:38:34;;;;;;;2.63;1.30;;;28.60;35.20;;;;;;4874312;28;46551;-64
2022/08/22 11:41:07;;;;;;;3.15;1.20;;;28.60;35.10;;;;;;4924272;28;45455;-64
2022/08/22 11:43:44;;;;;;;3.45;1.38;;;28.60;34.80;;;;;;4907728;28;45083;-64
2022/08/22 11:46:30;;;;;;;3.22;1.60;;;28.60;34.80;;;;;;4908014;28;45224;-65
2022/08/22 11:49:17;;;;;;;3.05;1.20;;;28.60;34.90;;;;;;4907764;28;45640;-65
2022/08/22 11:51:56;;;;;;;2.97;1.40;;;28.70;35.00;;;;;;4922409;28;45396;-64
2022/08/22 11:54:46;;;;;;;3.75;1.20;;;28.70;35.00;;;;;;4920858;28;45169;-64
2022/08/22 11:57:23;;;;;;;3.42;1.20;;;28.80;34.80;;;;;;4892945;28;45005;-64
2022/08/22 12:00:06;;;;;;;3.05;1.30;;;28.80;34.80;;;;;;4906485;28;45522;-64
2022/08/22 12:02:50;;;;;;;3.23;1.50;;;28.80;34.90;;;;;;4904228;28;45248;-64
2022/08/22 12:05:21;;;;;;;3.40;1.25;;;28.80;34.90;;;;;;4921643;28;45055;-65
2022/08/22 12:07:55;;;;;;;2.88;1.30;;;28.80;34.60;;;;;;4890667;28;59519;-65
2022/08/22 12:10:27;;;;;;;2.42;1.20;;;28.90;34.70;;;;;;4891688;28;45962;-66
2022/08/22 12:13:05;;;;;;;3.90;1.60;;;28.80;34.60;;;;;;4892009;28;45184;-65
2022/08/22 12:15:56;;;;;;;3.10;1.40;;;28.80;34.50;;;;;;4891751;28;45343;-65
2022/08/22 12:18:43;;;;;;;2.58;1.20;;;28.90;34.70;;;;;;4906650;28;45372;-66
2022/08/22 12:21:14;;;;;;;2.53;1.40;;;28.90;34.50;;;;;;4924572;28;45657;-65
2022/08/22 12:24:09;;;;;;;2.70;1.30;;;28.90;34.40;;;;;;4905967;28;45293;-65
2022/08/22 12:26:42;;;;;;;2.90;1.20;;;28.90;34.10;;;;;;4882560;28;44759;-65
2022/08/22 12:29:37;;;;;;;2.47;1.30;;;29.00;33.90;;;;;;4908093;28;45463;-65
2022/08/22 12:32:39;;;;;;;2.55;1.15;;;29.00;33.60;;;;;;4906090;28;46425;-65
2022/08/22 12:35:21;;;;;;;3.10;1.23;;;29.00;33.50;;;;;;4910411;28;45076;-65
2022/08/22 12:37:58;;;;;;;3.53;1.25;;;29.00;33.40;;;;;;4899550;28;45450;-64
2022/08/22 12:40:29;;;;;;;3.30;1.30;;;29.00;33.20;;;;;;4891448;28;45005;-65
2022/08/22 12:43:14;;;;;;;2.72;1.15;;;29.00;33.00;;;;;;4923686;28;46255;-66
2022/08/22 12:46:21;;;;;;;2.50;1.20;;;29.00;32.90;;;;;;4922626;28;45289;-65
2022/08/22 12:49:02;;;;;;;3.25;1.05;;;29.10;32.70;;;;;;4912225;28;44992;-65
2022/08/22 12:51:36;;;;;;;2.38;1.27;;;29.10;32.80;;;;;;4906484;28;45612;-65
2022/08/22 12:54:20;;;;;;;3.83;1.20;;;29.10;32.90;;;;;;4910641;28;45491;-65
2022/08/22 12:56:58;;;;;;;2.57;1.20;;;29.10;32.90;;;;;;4906678;28;45052;-65
2022/08/22 12:59:45;;;;;;;2.80;1.03;;;29.10;32.90;;;;;;4926816;28;45026;-65
2022/08/22 13:02:17;;;;;;;2.67;1.30;;;29.10;32.90;;;;;;4909984;28;45433;-65
2022/08/22 13:04:52;;;;;;;2.53;1.10;;;29.10;32.80;;;;;;4879301;28;45378;-66
2022/08/22 13:07:23;;;;;;;2.35;1.27;;;29.10;32.70;;;;;;4906829;28;44778;-65
2022/08/22 13:10:26;;;;;;;2.97;1.40;;;29.10;32.40;;;;;;4909088;28;46286;-64
2022/08/22 13:12:52;;;;;;;2.15;1.00;;;29.10;32.20;;;;;;4895432;28;45817;-65
2022/08/22 13:15:36;;;;;;;2.38;1.15;;;29.10;32.30;;;;;;4910470;28;45317;-66
2022/08/22 13:18:07;;;;;;;2.70;1.37;;;29.10;32.40;;;;;;4908561;28;48373;-64
2022/08/22 13:20:40;;;;;;;2.58;1.17;;;29.20;32.40;;;;;;4896714;28;45084;-64
2022/08/22 13:23:23;;;;;;;2.05;1.10;;;29.10;32.90;;;;;;4896455;28;45212;-63
2022/08/22 13:26:06;;;;;;;1.98;1.20;;;29.10;32.20;;;;;;4865577;28;46377;-63
2022/08/22 13:28:34;;;;;;;2.13;1.02;;;29.10;32.20;;;;;;4897513;28;44897;-65
2022/08/22 13:31:00;;;;;;;1.83;1.20;;;29.10;32.30;;;;;;4881945;28;45489;-65
2022/08/22 13:33:35;;;;;;;2.13;1.10;;;29.10;32.40;;;;;;4896728;28;45652;-65
2022/08/22 13:36:06;;;;;;;3.33;1.15;;;29.10;32.30;;;;;;4907057;28;46727;-66
2022/08/22 13:39:04;;;;;;;2.00;1.20;;;29.10;32.20;;;;;;4910546;28;45167;-65
2022/08/22 13:41:51;;;;;;;2.93;1.33;;;29.20;31.90;;;;;;4896303;28;44937;-65
2022/08/22 13:44:20;;;;;;;2.60;1.00;;;29.20;31.80;;;;;;4913724;28;45139;-66
2022/08/22 13:46:46;;;;;;;2.45;1.08;;;29.10;31.90;;;;;;4900868;28;45714;-65
2022/08/22 13:49:16;;;;;;;3.90;1.42;;;29.10;31.90;;;;;;4932788;28;46282;-64
2022/08/22 13:51:51;;;;;;;3.58;1.00;;;29.10;31.90;;;;;;4920715;28;44895;-65
2022/08/22 13:54:23;;;;;;;3.63;1.13;;;29.10;31.90;;;;;;4917184;28;44923;-64
2022/08/22 13:56:55;;;;;;;2.38;1.20;;;29.10;32.40;;;;;;4935681;28;45172;-65
2022/08/22 13:59:50;;;;;;;5.67;1.30;;;29.10;31.70;;;;;;4917168;28;44963;-64
2022/08/22 14:02:31;;;;;;;3.70;1.23;;;29.10;31.90;;;;;;4906741;28;45159;-64
2022/08/22 14:05:03;;;;;;;2.38;1.20;;;29.10;31.90;;;;;;4928143;28;44841;-65
2022/08/22 14:07:49;;;;;;;2.75;1.15;;;29.10;31.80;;;;;;4916639;28;45271;-64
2022/08/22 14:10:26;;;;;;;2.55;1.35;;;29.10;31.90;;;;;;4908043;28;45130;-66
2022/08/22 14:12:55;;;;;;;1.23;0.80;;;29.10;32.00;;;;;;4917451;28;44721;-65
2022/08/22 14:15:26;;;;;;;2.15;0.98;;;29.10;31.80;;;;;;4940684;28;44975;-65
2022/08/22 14:17:56;;;;;;;2.83;1.20;;;29.10;32.00;;;;;;4918031;28;45495;-65
2022/08/22 14:20:24;;;;;;;3.35;1.13;;;29.10;31.80;;;;;;4897508;28;44660;-66
2022/08/22 14:23:12;;;;;;;2.27;1.00;;;29.10;31.80;;;;;;4923442;28;44886;-65
2022/08/22 14:25:39;;;;;;;5.00;1.30;;;29.10;31.50;;;;;;4914411;28;44999;-65
2022/08/22 14:28:32;;;;;;;2.47;0.90;;;29.10;31.70;;;;;;4918119;28;45351;-65
2022/08/22 14:31:09;;;;;;;2.22;1.02;;;29.10;31.60;;;;;;4905390;28;45004;-66
2022/08/22 14:33:58;;;;;;;3.33;1.20;;;29.10;31.40;;;;;;4945348;28;45056;-65
2022/08/22 14:36:33;;;;;;;2.87;1.17;;;29.10;31.50;;;;;;4903507;28;45202;-65
2022/08/22 14:39:11;;;;;;;2.05;1.02;;;29.10;31.10;;;;;;4923558;28;46472;-65
2022/08/22 14:41:44;;;;;;;2.20;1.10;;;29.10;31.10;;;;;;4930573;28;44941;-64
2022/08/22 14:44:12;;;;;;;3.63;1.20;;;29.10;31.30;;;;;;4919973;28;44797;-65
2022/08/22 14:46:49;;;;;;;2.57;1.10;;;29.10;32.00;;;;;;4904233;28;45193;-65
2022/08/22 14:49:17;;;;;;;4.15;1.30;;;29.10;31.60;;;;;;4901969;28;46044;-65
2022/08/22 14:52:10;;;;;;;2.88;1.00;;;29.10;31.40;;;;;;4924359;28;46293;-65
2022/08/22 14:54:36;;;;;;;2.80;1.05;;;29.00;31.40;;;;;;4911861;28;45047;-65
2022/08/22 14:57:06;;;;;;;2.90;0.90;;;29.10;31.80;;;;;;4914962;28;45148;-66
2022/08/22 14:59:39;;;;;;;4.88;1.02;;;29.00;31.70;;;;;;4899734;28;45903;-65
2022/08/22 15:02:08;;;;;;;2.23;1.10;;;29.00;31.70;;;;;;4913939;28;45068;-65
2022/08/22 15:04:45;;;;;;;2.92;1.17;;;29.00;31.60;;;;;;4895583;28;44958;-64
2022/08/22 15:07:19;;;;;;;2.75;1.10;;;29.00;32.10;;;;;;4916717;28;44989;-64
2022/08/22 15:09:50;;;;;;;2.92;1.30;;;29.00;32.00;;;;;;4902659;28;44976;-65
2022/08/22 15:12:22;;;;;;;1.60;0.80;;;29.00;31.90;;;;;;4914875;28;44687;-64
2022/08/22 15:14:49;;;;;;;3.20;1.03;;;29.00;32.60;;;;;;4930243;28;44848;-65
2022/08/22 15:17:45;;;;;;;1.77;0.98;;;28.90;31.50;;;;;;4903465;28;44804;-64
2022/08/22 15:20:21;;;;;;;1.85;1.15;;;29.00;31.70;;;;;;4921737;28;45617;-64
2022/08/22 15:22:48;;;;;;;2.90;1.58;;;28.90;31.60;;;;;;4914861;28;45098;-64
2022/08/22 15:25:34;;;;;;;2.63;1.30;;;29.00;31.50;;;;;;4902599;28;45149;-64
2022/08/22 15:28:08;;;;;;;3.25;1.00;;;28.90;31.50;;;;;;4911779;28;44877;-65
2022/08/22 15:30:39;;;;;;;2.67;1.10;;;28.90;31.50;;;;;;4895077;28;44995;-66
2022/08/22 15:33:11;;;;;;;1.90;1.00;;;28.90;31.60;;;;;;4914854;28;45326;-64
2022/08/22 15:35:36;;;;;;;2.58;1.25;;;29.00;31.50;;;;;;4933115;28;44652;-64
2022/08/22 15:38:04;;;;;;;2.50;1.10;;;28.90;31.50;;;;;;4921521;28;45238;-65
2022/08/22 15:40:40;;;;;;;1.80;1.10;;;28.90;31.40;;;;;;4916253;28;45265;-64
2022/08/22 15:43:25;;;;;;;3.42;1.13;;;28.90;31.50;;;;;;4928036;28;45015;-64
2022/08/22 15:46:10;;;;;;;5.47;1.40;;;28.90;31.70;;;;;;4912508;28;45204;-64
2022/08/22 15:48:37;;;;;;;4.53;1.30;;;28.90;31.50;;;;;;4913930;28;44676;-64
2022/08/22 15:51:12;;;;;;;5.30;1.30;;;29.00;31.60;;;;;;4898894;28;47402;-64
2022/08/22 15:53:43;;;;;;;5.93;1.30;;;28.90;31.60;;;;;;4914939;28;44804;-67
2022/08/22 15:56:17;;;;;;;5.10;1.10;;;29.00;31.70;;;;;;4926791;28;44961;-65
2022/08/22 15:58:45;;;;;;;3.15;1.27;;;28.90;31.60;;;;;;4903072;28;45425;-63
2022/08/22 16:01:18;;;;;;;3.00;1.13;;;29.00;31.70;;;;;;4908893;28;45794;-65
2022/08/22 16:03:51;;;;;;;5.95;1.15;;;29.00;31.70;;;;;;4896267;28;44903;-64
2022/08/22 16:06:47;;;;;;;2.80;1.00;;;28.90;31.30;;;;;;4928707;28;45570;-64
2022/08/22 16:09:30;;;;;;;3.03;1.00;;;28.90;31.20;;;;;;4909674;28;45006;-63
2022/08/22 16:11:55;;;;;;;2.15;0.93;;;28.90;31.20;;;;;;4907346;28;45370;-63
2022/08/22 16:14:33;;;;;;;4.03;1.10;;;28.90;31.30;;;;;;4910251;28;44963;-64
2022/08/22 16:17:26;;;;;;;3.30;1.08;;;28.90;31.40;;;;;;4924649;28;44919;-64
2022/08/22 16:20:10;;;;;;;3.40;1.10;;;28.90;31.30;;;;;;4912191;28;44951;-64
2022/08/22 16:22:55;;;;;;;2.03;0.90;;;28.90;31.10;;;;;;4926718;28;45679;-65
2022/08/22 16:25:43;;;;;;;3.35;1.05;;;28.90;31.10;;;;;;4926213;28;45013;-65
2022/08/22 16:28:26;;;;;;;3.13;1.10;;;28.90;31.20;;;;;;4927775;28;44877;-64
2022/08/22 16:30:53;;;;;;;3.25;1.00;;;28.90;31.20;;;;;;4911486;28;45239;-64
2022/08/22 16:33:34;;;;;;;2.47;1.17;;;28.90;31.20;;;;;;4912426;28;46494;-65
2022/08/22 16:36:37;;;;;;;3.73;1.10;;;28.90;31.20;;;;;;4908253;28;45066;-65
2022/08/22 16:39:36;;;;;;;2.72;1.05;;;28.90;31.10;;;;;;4928537;28;45294;-65
2022/08/22 16:42:18;;;;;;;3.25;1.00;;;28.90;31.40;;;;;;4905462;28;44778;-66
2022/08/22 16:45:05;;;;;;;2.40;1.00;;;28.90;31.40;;;;;;4924447;28;45468;-66
2022/08/22 16:47:39;;;;;;;1.60;0.80;;;28.90;31.50;;;;;;4925099;28;44889;-65
2022/08/22 16:50:17;;;;;;;3.07;1.20;;;28.90;31.30;;;;;;4922213;28;45778;-66